createdAt,value
2018-02-03T00:02:26.450Z,54.97
2018-02-03T00:04:53.981Z,55.27
2018-02-03T00:07:21.568Z,55.13
2018-02-03T00:09:49.137Z,55.30
2018-02-03T00:12:16.718Z,55.12
2018-02-03T00:14:44.266Z,55.14
2018-02-03T00:17:11.802Z,55.49
2018-02-03T00:19:39.382Z,56.03
2018-02-03T00:22:06.927Z,56.49
2018-02-03T00:24:34.464Z,56.70
2018-02-03T00:27:02.009Z,56.91
2018-02-03T00:29:29.553Z,57.49
2018-02-03T00:31:57.207Z,57.77
2018-02-03T00:34:24.896Z,58.20
2018-02-03T00:36:52.539Z,58.29
2018-02-03T00:39:20.082Z,58.67
2018-02-03T00:41:47.876Z,58.67
2018-02-03T00:44:15.464Z,58.17
2018-02-03T00:46:43.031Z,58.42
2018-02-03T00:49:10.722Z,58.91
2018-02-03T00:51:38.317Z,59.37
2018-02-03T00:54:05.958Z,59.45
2018-02-03T00:56:33.535Z,59.48
2018-02-03T00:59:01.402Z,59.36
2018-02-03T01:01:28.980Z,59.36
2018-02-03T01:03:56.542Z,59.00
2018-02-03T01:06:24.098Z,58.92
2018-02-03T01:08:51.790Z,58.99
2018-02-03T01:11:19.354Z,58.50
2018-02-03T01:13:47.185Z,58.50
2018-02-03T01:16:14.762Z,58.22
2018-02-03T01:18:42.547Z,58.07
2018-02-03T01:21:10.189Z,57.97
2018-02-03T01:23:37.983Z,57.80
2018-02-03T01:26:05.546Z,57.74
2018-02-03T01:28:33.318Z,57.59
2018-02-03T01:31:00.878Z,57.81
2018-02-03T01:33:28.656Z,57.29
2018-02-03T01:35:56.210Z,57.23
2018-02-03T01:38:23.950Z,57.56
2018-02-03T01:40:51.520Z,57.66
2018-02-03T01:43:19.327Z,57.15
2018-02-03T01:45:47.052Z,56.84
2018-02-03T01:48:14.863Z,57.19
2018-02-03T01:50:42.422Z,57.47
2018-02-03T01:53:10.006Z,57.30
2018-02-03T01:55:37.691Z,56.83
2018-02-03T01:58:05.539Z,56.48
2018-02-03T02:00:33.170Z,56.24
2018-02-03T02:03:00.723Z,55.85
2018-02-03T02:05:28.286Z,55.98
2018-02-03T02:07:55.889Z,56.34
2018-02-03T02:10:23.457Z,56.62
2018-02-03T02:12:51.022Z,57.05
2018-02-03T02:15:18.722Z,57.50
2018-02-03T02:17:46.282Z,57.95
2018-02-03T02:20:13.890Z,57.66
2018-02-03T02:22:41.615Z,57.84
2018-02-03T02:25:09.174Z,56.68
2018-02-03T02:27:36.951Z,56.48
2018-02-03T02:30:04.749Z,56.60
2018-02-03T02:32:32.317Z,56.83
2018-02-03T02:35:00.080Z,57.04
2018-02-03T02:37:27.643Z,57.56
2018-02-03T02:39:55.231Z,57.74
2018-02-03T02:42:22.807Z,58.02
2018-02-03T02:44:50.367Z,57.63
2018-02-03T02:47:17.986Z,57.30
2018-02-03T02:49:45.597Z,57.27
2018-02-03T02:52:13.295Z,57.20
2018-02-03T02:54:40.937Z,57.79
2018-02-03T02:57:08.501Z,57.95
2018-02-03T02:59:36.181Z,57.77
2018-02-03T03:02:03.823Z,57.94
2018-02-03T03:04:31.621Z,58.11
2018-02-03T03:06:59.178Z,58.35
2018-02-03T03:09:26.726Z,58.26
2018-02-03T03:11:54.274Z,58.26
2018-02-03T03:14:22.092Z,58.12
2018-02-03T03:16:49.810Z,58.61
2018-02-03T03:19:17.503Z,58.63
2018-02-03T03:21:45.072Z,58.48
2018-02-03T03:24:12.633Z,58.19
2018-02-03T03:26:40.381Z,57.97
2018-02-03T03:29:08.195Z,57.70
2018-02-03T03:31:36.024Z,57.23
2018-02-03T03:34:03.612Z,56.96
2018-02-03T03:36:31.354Z,56.95
2018-02-03T03:38:59.073Z,56.81
2018-02-03T03:41:26.646Z,56.19
2018-02-03T03:43:54.206Z,56.09
2018-02-03T03:46:21.784Z,56.05
2018-02-03T03:48:49.357Z,56.02
2018-02-03T03:51:17.164Z,55.37
2018-02-03T03:53:44.772Z,54.98
2018-02-03T03:56:12.326Z,54.23
2018-02-03T03:58:39.885Z,53.78
2018-02-03T04:01:07.480Z,53.12
2018-02-03T04:03:35.086Z,53.18
2018-02-03T04:06:02.783Z,52.46
2018-02-03T04:08:30.374Z,52.33
2018-02-03T04:10:57.942Z,52.11
2018-02-03T04:13:25.638Z,51.85
2018-02-03T04:15:53.245Z,51.93
2018-02-03T04:18:20.827Z,52.09
2018-02-03T04:20:48.383Z,52.24
2018-02-03T04:23:15.972Z,52.38
2018-02-03T04:25:43.714Z,51.82
2018-02-03T04:28:11.288Z,51.63
2018-02-03T04:30:38.895Z,51.53
2018-02-03T04:33:06.666Z,51.84
2018-02-03T04:35:34.216Z,51.79
2018-02-03T04:38:01.995Z,51.66
2018-02-03T04:40:29.600Z,51.76
2018-02-03T04:42:57.164Z,52.01
2018-02-03T04:45:24.956Z,51.75
2018-02-03T04:47:52.513Z,51.97
2018-02-03T04:50:20.172Z,51.77
2018-02-03T04:52:47.910Z,51.56
2018-02-03T04:55:15.466Z,51.57
2018-02-03T04:57:43.057Z,51.93
2018-02-03T05:00:10.629Z,52.59
2018-02-03T05:02:38.200Z,51.97
2018-02-03T05:05:05.790Z,52.04
2018-02-03T05:07:33.393Z,52.07
2018-02-03T05:10:01.136Z,52.32
2018-02-03T05:12:28.689Z,52.67
2018-02-03T05:14:56.250Z,52.56
2018-02-03T05:17:24.089Z,52.41
2018-02-03T05:19:51.908Z,52.04
2018-02-03T05:22:19.469Z,51.80
2018-02-03T05:24:47.248Z,51.55
2018-02-03T05:27:14.801Z,51.59
2018-02-03T05:29:42.491Z,51.44
2018-02-03T05:32:10.045Z,51.55
2018-02-03T05:34:37.654Z,51.79
2018-02-03T05:37:05.503Z,51.27
2018-02-03T05:39:33.352Z,51.21
2018-02-03T05:42:00.962Z,51.15
2018-02-03T05:44:28.933Z,51.19
2018-02-03T05:46:56.587Z,51.06
2018-02-03T05:49:24.162Z,51.02
2018-02-03T05:51:51.950Z,51.26
2018-02-03T05:54:19.518Z,51.83
2018-02-03T05:56:47.077Z,52.01
2018-02-03T05:59:14.651Z,52.05
2018-02-03T06:01:42.208Z,51.80
2018-02-03T06:04:09.795Z,51.84
2018-02-03T06:06:37.393Z,51.92
2018-02-03T06:09:05.014Z,51.85
2018-02-03T06:11:32.561Z,51.50
2018-02-03T06:14:00.178Z,51.64
2018-02-03T06:16:27.921Z,51.23
2018-02-03T06:18:55.518Z,51.45
2018-02-03T06:21:23.075Z,50.80
2018-02-03T06:23:50.642Z,51.20
2018-02-03T06:26:18.485Z,51.04
2018-02-03T06:28:46.055Z,50.63
2018-02-03T06:31:13.832Z,50.47
2018-02-03T06:33:41.548Z,50.56
2018-02-03T06:36:09.367Z,50.69
2018-02-03T06:38:36.945Z,50.57
2018-02-03T06:41:04.521Z,50.18
2018-02-03T06:43:32.091Z,50.35
2018-02-03T06:45:59.650Z,50.37
2018-02-03T06:48:27.460Z,50.55
2018-02-03T06:50:55.073Z,50.75
2018-02-03T06:53:22.654Z,50.71
2018-02-03T06:55:50.220Z,50.92
2018-02-03T06:58:18.121Z,51.14
2018-02-03T07:00:45.946Z,51.61
2018-02-03T07:03:13.697Z,51.51
2018-02-03T07:05:41.483Z,51.88
2018-02-03T07:08:09.352Z,52.25
2018-02-03T07:10:36.919Z,52.68
2018-02-03T07:13:04.489Z,52.86
2018-02-03T07:15:32.209Z,52.93
2018-02-03T07:17:59.872Z,52.99
2018-02-03T07:20:27.450Z,53.46
2018-02-03T07:22:55.030Z,53.19
2018-02-03T07:25:22.710Z,53.32
2018-02-03T07:27:50.289Z,53.53
2018-02-03T07:30:17.906Z,54.14
2018-02-03T07:32:45.466Z,54.90
2018-02-03T07:35:13.299Z,55.88
2018-02-03T07:37:40.861Z,56.75
2018-02-03T07:40:08.407Z,57.39
2018-02-03T07:42:36.012Z,57.63
2018-02-03T07:45:03.618Z,58.17
2018-02-03T07:47:31.348Z,58.50
2018-02-03T07:49:58.902Z,58.50
2018-02-03T07:52:26.518Z,58.96
2018-02-03T07:54:54.222Z,59.58
2018-02-03T07:57:21.809Z,59.90
2018-02-03T07:59:49.373Z,60.04
2018-02-03T08:02:17.099Z,60.20
2018-02-03T08:04:44.918Z,60.21
2018-02-03T08:07:12.478Z,60.23
2018-02-03T08:09:40.221Z,60.08
2018-02-03T08:12:07.814Z,60.00
2018-02-03T08:14:35.376Z,59.88
2018-02-03T08:17:02.956Z,59.86
2018-02-03T08:19:30.518Z,59.73
2018-02-03T08:21:58.225Z,59.37
2018-02-03T08:24:25.958Z,59.23
2018-02-03T08:26:53.529Z,59.04
2018-02-03T08:29:21.294Z,58.93
2018-02-03T08:31:48.858Z,58.81
2018-02-03T08:34:16.630Z,58.77
2018-02-03T08:36:44.448Z,58.63
2018-02-03T08:39:12.058Z,58.63
2018-02-03T08:41:39.635Z,58.83
2018-02-03T08:44:07.404Z,58.82
2018-02-03T08:46:35.062Z,58.93
2018-02-03T08:49:02.811Z,58.83
2018-02-03T08:51:30.525Z,59.02
2018-02-03T08:53:58.285Z,59.04
2018-02-03T08:56:25.925Z,59.02
2018-02-03T08:58:53.490Z,58.84
2018-02-03T09:01:21.082Z,58.84
2018-02-03T09:03:48.663Z,58.69
2018-02-03T09:06:16.233Z,58.51
2018-02-03T09:08:43.811Z,58.51
2018-02-03T09:11:11.370Z,58.35
2018-02-03T09:13:39.221Z,58.35
2018-02-03T09:16:06.797Z,58.33
2018-02-03T09:18:34.374Z,58.50
2018-02-03T09:21:02.172Z,58.51
2018-02-03T09:23:29.891Z,58.57
2018-02-03T09:25:57.466Z,58.22
2018-02-03T09:28:25.030Z,58.20
2018-02-03T09:30:52.654Z,58.04
2018-02-03T09:33:20.272Z,58.01
2018-02-03T09:35:48.005Z,58.13
2018-02-03T09:38:15.652Z,58.22
2018-02-03T09:40:43.211Z,58.31
2018-02-03T09:43:10.782Z,58.58
2018-02-03T09:45:38.514Z,58.64
2018-02-03T09:48:06.156Z,59.06
2018-02-03T09:50:33.732Z,59.28
2018-02-03T09:53:01.590Z,59.53
2018-02-03T09:55:29.174Z,59.78
2018-02-03T09:57:56.725Z,60.23
2018-02-03T10:00:24.304Z,60.01
2018-02-03T10:02:52.026Z,60.04
2018-02-03T10:05:19.734Z,60.00
2018-02-03T10:07:47.298Z,59.85
2018-02-03T10:10:15.017Z,59.73
2018-02-03T10:12:42.618Z,59.70
2018-02-03T10:15:10.352Z,59.84
2018-02-03T10:17:37.925Z,59.59
2018-02-03T10:20:05.489Z,59.58
2018-02-03T10:22:33.305Z,59.48
2018-02-03T10:25:01.026Z,59.39
2018-02-03T10:27:28.577Z,59.38
2018-02-03T10:29:56.154Z,58.99
2018-02-03T10:32:23.722Z,59.03
2018-02-03T10:34:51.299Z,58.75
2018-02-03T10:37:18.931Z,58.75
2018-02-03T10:39:46.751Z,58.60
2018-02-03T10:42:14.386Z,58.56
2018-02-03T10:44:41.961Z,58.45
2018-02-03T10:47:09.519Z,58.32
2018-02-03T10:49:37.089Z,58.28
2018-02-03T10:52:04.858Z,58.35
2018-02-03T10:54:32.676Z,58.19
2018-02-03T10:57:00.483Z,58.21
2018-02-03T10:59:28.078Z,58.11
2018-02-03T11:01:55.648Z,58.21
2018-02-03T11:04:23.331Z,58.20
2018-02-03T11:06:51.035Z,57.87
2018-02-03T11:09:18.702Z,57.85
2018-02-03T11:11:46.295Z,57.21
2018-02-03T11:14:13.912Z,57.13
2018-02-03T11:16:41.533Z,57.14
2018-02-03T11:19:09.240Z,56.98
2018-02-03T11:21:36.867Z,56.92
2018-02-03T11:24:04.593Z,57.17
2018-02-03T11:26:32.165Z,57.12
2018-02-03T11:28:59.729Z,57.09
2018-02-03T11:31:27.341Z,56.97
2018-02-03T11:33:55.060Z,56.88
2018-02-03T11:36:22.618Z,56.92
2018-02-03T11:38:50.291Z,56.66
2018-02-03T11:41:17.897Z,56.62
2018-02-03T11:43:45.513Z,56.21
2018-02-03T11:46:13.268Z,56.06
2018-02-03T11:48:40.973Z,56.09
2018-02-03T11:51:08.547Z,55.67
2018-02-03T11:53:36.311Z,55.12
2018-02-03T11:56:04.127Z,55.12
2018-02-03T11:58:31.948Z,54.89
2018-02-03T12:00:59.766Z,54.93
2018-02-03T12:03:27.486Z,54.84
2018-02-03T12:05:55.073Z,54.55
2018-02-03T12:08:22.811Z,54.50
2018-02-03T12:10:50.637Z,54.57
2018-02-03T12:13:18.250Z,54.16
2018-02-03T12:15:45.814Z,53.61
2018-02-03T12:18:13.380Z,53.75
2018-02-03T12:20:41.197Z,53.70
2018-02-03T12:23:08.771Z,53.66
2018-02-03T12:25:36.459Z,53.65
2018-02-03T12:28:04.267Z,53.84
2018-02-03T12:30:32.082Z,54.02
2018-02-03T12:32:59.737Z,54.12
2018-02-03T12:35:27.404Z,54.19
2018-02-03T12:37:54.981Z,54.24
2018-02-03T12:40:22.597Z,54.42
2018-02-03T12:42:50.372Z,54.26
2018-02-03T12:45:18.102Z,54.37
2018-02-03T12:47:45.701Z,54.27
2018-02-03T12:50:13.253Z,54.53
2018-02-03T12:52:40.858Z,54.52
2018-02-03T12:55:08.714Z,54.47
2018-02-03T12:57:36.253Z,54.24
2018-02-03T13:00:03.853Z,54.38
2018-02-03T13:02:31.406Z,54.54
2018-02-03T13:04:59.295Z,54.66
2018-02-03T13:07:26.849Z,54.66
2018-02-03T13:09:54.403Z,54.59
2018-02-03T13:12:21.969Z,54.67
2018-02-03T13:14:49.806Z,54.77
2018-02-03T13:17:17.526Z,54.76
2018-02-03T13:19:45.220Z,54.63
2018-02-03T13:22:12.897Z,54.77
2018-02-03T13:24:40.682Z,54.49
2018-02-03T13:27:08.368Z,53.90
2018-02-03T13:29:36.087Z,53.22
2018-02-03T13:32:03.649Z,52.15
2018-02-03T13:34:31.453Z,51.60
2018-02-03T13:36:59.027Z,51.28
2018-02-03T13:39:26.593Z,51.43
2018-02-03T13:41:54.196Z,50.93
2018-02-03T13:44:21.909Z,51.03
2018-02-03T13:46:49.644Z,50.49
2018-02-03T13:49:17.215Z,50.73
2018-02-03T13:51:44.821Z,50.80
2018-02-03T13:54:12.505Z,49.89
2018-02-03T13:56:40.065Z,49.39
2018-02-03T13:59:07.663Z,48.24
2018-02-03T14:01:35.238Z,48.67
2018-02-03T14:04:02.813Z,48.94
2018-02-03T14:06:30.475Z,49.92
2018-02-03T14:08:58.094Z,49.34
2018-02-03T14:11:25.657Z,49.70
2018-02-03T14:13:53.571Z,50.26
2018-02-03T14:16:21.152Z,51.18
2018-02-03T14:18:48.936Z,50.50
2018-02-03T14:21:16.754Z,49.53
2018-02-03T14:26:46.301Z,48.87
2018-02-03T14:29:14.132Z,49.36
2018-02-03T14:31:41.948Z,49.99
2018-02-03T14:34:09.521Z,50.43
2018-02-03T14:36:37.085Z,50.63
2018-02-03T14:39:04.735Z,51.04
2018-02-03T14:41:32.309Z,50.85
2018-02-03T14:44:00.137Z,50.93
2018-02-03T14:46:27.859Z,51.07
2018-02-03T14:48:55.998Z,51.63
2018-02-03T14:51:24.697Z,51.88
2018-02-03T14:53:53.788Z,52.22
2018-02-03T14:56:21.725Z,52.37
2018-02-03T14:58:49.548Z,52.28
2018-02-03T15:01:17.367Z,52.67
2018-02-03T15:03:45.119Z,53.03
2018-02-03T15:06:12.980Z,53.14
2018-02-03T15:08:40.622Z,53.45
2018-02-03T15:11:08.450Z,53.67
2018-02-03T15:13:36.260Z,53.76
2018-02-03T15:16:05.492Z,54.35
2018-02-03T15:18:33.572Z,54.47
2018-02-03T15:21:02.334Z,54.76
2018-02-03T15:23:30.238Z,55.10
2018-02-03T15:26:00.071Z,55.31
2018-02-03T15:28:27.888Z,55.39
2018-02-03T15:31:02.061Z,55.43
2018-02-03T15:33:32.062Z,55.53
2018-02-03T15:35:59.852Z,55.69
2018-02-03T15:38:27.406Z,55.83
2018-02-03T15:40:54.989Z,55.58
2018-02-03T15:43:22.548Z,55.30
2018-02-03T15:45:50.173Z,55.41
2018-02-03T15:48:17.782Z,55.26
2018-02-03T15:50:45.590Z,55.33
2018-02-03T15:53:13.160Z,55.25
2018-02-03T15:55:40.717Z,55.43
2018-02-03T15:58:08.266Z,55.55
2018-02-03T16:00:35.851Z,55.87
2018-02-03T16:03:03.682Z,56.01
2018-02-03T16:05:31.500Z,55.86
2018-02-03T16:07:59.316Z,56.08
2018-02-03T16:10:27.136Z,56.03
2018-02-03T16:12:54.697Z,55.78
2018-02-03T16:15:22.258Z,55.73
2018-02-03T16:17:50.088Z,55.74
2018-02-03T16:20:17.907Z,55.50
2018-02-03T16:22:45.470Z,55.34
2018-02-03T16:25:13.209Z,55.26
2018-02-03T16:27:40.949Z,55.21
2018-02-03T16:30:08.679Z,55.28
2018-02-03T16:32:36.292Z,55.32
2018-02-03T16:35:03.854Z,55.45
2018-02-03T16:37:31.417Z,55.42
2018-02-03T16:39:58.997Z,55.57
2018-02-03T16:42:26.677Z,55.43
2018-02-03T16:44:54.257Z,55.33
2018-02-03T16:47:22.005Z,55.39
2018-02-03T16:49:49.924Z,55.13
2018-02-03T16:52:17.490Z,55.19
2018-02-03T16:54:45.260Z,55.02
2018-02-03T16:57:12.853Z,54.93
2018-02-03T16:59:40.595Z,55.23
2018-02-03T17:02:08.200Z,55.66
2018-02-03T17:04:35.809Z,55.78
2018-02-03T17:07:03.430Z,56.15
2018-02-03T17:09:30.991Z,56.22
2018-02-03T17:11:58.554Z,56.29
2018-02-03T17:14:26.194Z,56.53
2018-02-03T17:16:54.002Z,56.40
2018-02-03T17:19:21.586Z,56.23
2018-02-03T17:21:49.150Z,56.34
2018-02-03T17:24:16.772Z,56.24
2018-02-03T17:26:44.493Z,56.39
2018-02-03T17:29:12.317Z,56.46
2018-02-03T17:31:39.919Z,56.40
2018-02-03T17:34:07.477Z,56.37
2018-02-03T17:36:40.521Z,56.31
2018-02-03T17:39:13.625Z,56.56
2018-02-03T17:41:41.440Z,55.96
2018-02-03T17:44:09.005Z,55.89
2018-02-03T17:46:42.051Z,55.91
2018-02-03T17:49:09.654Z,55.98
2018-02-03T17:51:37.322Z,55.81
2018-02-03T17:54:05.051Z,55.88
2018-02-03T17:56:38.209Z,55.80
2018-02-03T17:59:05.774Z,55.87
2018-02-03T18:01:33.383Z,55.68
2018-02-03T18:04:00.957Z,56.00
2018-02-03T18:06:34.061Z,55.66
2018-02-03T18:09:01.674Z,55.51
2018-02-03T18:11:29.235Z,55.54
2018-02-03T18:13:57.025Z,55.35
2018-02-03T18:16:24.645Z,55.18
2018-02-03T18:18:52.366Z,55.41
2018-02-03T18:21:19.938Z,55.30
2018-02-03T18:23:47.595Z,55.50
2018-02-03T18:26:15.210Z,55.46
2018-02-03T18:28:42.786Z,55.32
2018-02-03T18:31:10.621Z,55.50
2018-02-03T18:33:38.292Z,55.71
2018-02-03T18:36:05.867Z,55.48
2018-02-03T18:38:33.515Z,55.24
2018-02-03T18:41:01.097Z,54.98
2018-02-03T18:43:28.663Z,55.08
2018-02-03T18:45:56.447Z,55.15
2018-02-03T18:48:24.054Z,54.81
2018-02-03T18:50:51.603Z,55.02
2018-02-03T18:53:19.177Z,55.12
2018-02-03T18:55:46.749Z,55.05
2018-02-03T18:58:14.307Z,55.01
2018-02-03T19:00:42.071Z,54.87
2018-02-03T19:03:09.634Z,54.74
2018-02-03T19:05:37.477Z,54.97
2018-02-03T19:08:05.192Z,54.72
2018-02-03T19:10:32.761Z,54.61
2018-02-03T19:13:00.322Z,54.58
2018-02-03T19:15:27.909Z,54.08
2018-02-03T19:17:55.487Z,54.20
2018-02-03T19:20:23.176Z,54.19
2018-02-03T19:22:50.778Z,53.83
2018-02-03T19:25:18.509Z,53.94
2018-02-03T19:27:46.138Z,54.00
2018-02-03T19:30:13.698Z,53.94
2018-02-03T19:32:41.507Z,54.28
2018-02-03T19:35:09.895Z,54.13
2018-02-03T19:37:37.554Z,54.19
2018-02-03T19:40:05.166Z,54.22
2018-02-03T19:42:32.734Z,54.33
2018-02-03T19:45:00.270Z,54.64
2018-02-03T19:47:27.837Z,54.67
2018-02-03T19:49:55.633Z,55.11
2018-02-03T19:52:23.342Z,55.41
2018-02-03T19:54:50.937Z,55.36
2018-02-03T19:57:18.666Z,55.51
2018-02-03T19:59:46.248Z,55.54
2018-02-03T20:02:13.981Z,55.57
2018-02-03T20:04:41.742Z,55.97
2018-02-03T20:07:09.370Z,56.03
2018-02-03T20:09:36.963Z,56.13
2018-02-03T20:12:04.587Z,56.20
2018-02-03T20:14:32.209Z,56.14
2018-02-03T20:16:59.819Z,56.41
2018-02-03T20:19:27.382Z,56.40
2018-02-03T20:21:54.945Z,56.42
2018-02-03T20:24:22.509Z,56.62
2018-02-03T20:26:50.081Z,56.84
2018-02-03T20:29:17.637Z,56.88
2018-02-03T20:31:45.404Z,56.90
2018-02-03T20:34:12.966Z,57.02
2018-02-03T20:36:40.526Z,57.16
2018-02-03T20:39:08.291Z,57.36
2018-02-03T20:41:35.858Z,57.50
2018-02-03T20:44:03.470Z,57.77
2018-02-03T20:46:31.011Z,57.74
2018-02-03T20:48:58.753Z,57.71
2018-02-03T20:51:26.484Z,57.80
2018-02-03T20:53:54.078Z,58.02
2018-02-03T20:56:21.690Z,58.29
2018-02-03T20:58:49.241Z,58.33
2018-02-03T21:01:17.054Z,58.29
2018-02-03T21:03:44.613Z,58.21
2018-02-03T21:06:12.258Z,58.25
2018-02-03T21:08:39.809Z,58.40
2018-02-03T21:11:07.388Z,58.53
2018-02-03T21:13:34.974Z,58.48
2018-02-03T21:16:02.534Z,58.46
2018-02-03T21:18:30.106Z,58.25
2018-02-03T21:20:57.896Z,58.14
2018-02-03T21:23:25.569Z,57.91
2018-02-03T21:25:53.153Z,57.99
2018-02-03T21:28:20.722Z,58.20
2018-02-03T21:30:48.291Z,57.52
2018-02-03T21:33:16.086Z,57.30
2018-02-03T21:35:43.699Z,56.85
2018-02-03T21:38:11.307Z,56.53
2018-02-03T21:40:39.140Z,56.61
2018-02-03T21:43:06.706Z,57.06
2018-02-03T21:45:34.478Z,57.35
2018-02-03T21:48:02.088Z,57.58
2018-02-03T21:50:29.657Z,58.31
2018-02-03T21:52:57.270Z,58.62
2018-02-03T21:55:24.831Z,58.86
2018-02-03T21:57:52.470Z,59.45
2018-02-03T22:00:20.286Z,59.61
2018-02-03T22:02:47.858Z,60.10
2018-02-03T22:05:15.514Z,60.79
2018-02-03T22:07:43.339Z,61.35
2018-02-03T22:10:10.973Z,62.06
2018-02-03T22:12:38.573Z,63.03
2018-02-03T22:15:06.193Z,63.63
2018-02-03T22:17:33.762Z,63.90
2018-02-03T22:20:01.322Z,64.12
2018-02-03T22:22:28.898Z,64.77
2018-02-03T22:24:56.457Z,64.75
2018-02-03T22:27:24.181Z,64.36
2018-02-03T22:29:51.741Z,65.12
2018-02-03T22:32:19.398Z,65.78
2018-02-03T22:34:46.976Z,66.51
2018-02-03T22:37:14.550Z,67.08
2018-02-03T22:39:42.119Z,67.65
2018-02-03T22:42:09.747Z,67.93
2018-02-03T22:44:37.319Z,67.96
2018-02-03T22:47:05.125Z,68.02
2018-02-03T22:49:32.738Z,68.55
2018-02-03T22:52:00.462Z,68.83
2018-02-03T22:54:28.100Z,69.33
2018-02-03T22:56:55.897Z,69.74
2018-02-03T22:59:23.458Z,69.83
2018-02-03T23:01:51.338Z,70.09
2018-02-03T23:04:19.128Z,69.87
2018-02-03T23:06:46.690Z,70.00
2018-02-03T23:09:14.333Z,70.08
2018-02-03T23:11:41.991Z,70.15
2018-02-03T23:14:09.576Z,70.19
2018-02-03T23:16:37.311Z,70.46
2018-02-03T23:19:04.945Z,70.66
2018-02-03T23:21:32.678Z,70.45
2018-02-03T23:24:00.265Z,70.32
2018-02-03T23:26:27.838Z,70.68
2018-02-03T23:28:55.632Z,71.37
2018-02-03T23:31:23.450Z,71.35
2018-02-03T23:33:50.993Z,71.87
2018-02-03T23:36:18.789Z,71.71
2018-02-03T23:38:46.373Z,71.99
2018-02-03T23:41:13.928Z,72.01
2018-02-03T23:43:41.549Z,72.09
2018-02-03T23:46:09.359Z,72.46
2018-02-03T23:48:37.051Z,72.53
2018-02-03T23:51:04.638Z,72.22
2018-02-03T23:53:32.204Z,72.35
2018-02-03T23:55:59.782Z,72.39
2018-02-03T23:58:27.573Z,72.23
